sensor_id;sensor_type;location;lat;lon;timestamp;P1;durP1;ratioP1;P2;durP2;ratioP2
27889;SDS011;15238;49.082;9.102;2024-01-30T00:01:06;33.55;;;18.08;;
27889;SDS011;15238;49.082;9.102;2024-01-30T00:03:06;34.33;;;18.38;;
27889;SDS011;15238;49.082;9.102;2024-01-30T00:05:07;33.35;;;18.77;;
27889;SDS011;15238;49.082;9.102;2024-01-30T00:07:07;33.90;;;18.95;;
27889;SDS011;15238;49.082;9.102;2024-01-30T00:09:08;31.45;;;18.38;;
27889;SDS011;15238;49.082;9.102;2024-01-30T00:11:10;34.90;;;18.58;;
27889;SDS011;15238;49.082;9.102;2024-01-30T00:13:10;29.27;;;17.27;;
27889;SDS011;15238;49.082;9.102;2024-01-30T00:15:10;32.03;;;17.92;;
27889;SDS011;15238;49.082;9.102;2024-01-30T00:17:11;29.83;;;16.67;;
27889;SDS011;15238;49.082;9.102;2024-01-30T00:19:11;35.10;;;19.35;;
27889;SDS011;15238;49.082;9.102;2024-01-30T00:21:12;35.67;;;19.35;;
27889;SDS011;15238;49.082;9.102;2024-01-30T00:23:13;43.65;;;21.35;;
27889;SDS011;15238;49.082;9.102;2024-01-30T00:25:13;42.55;;;20.40;;
27889;SDS011;15238;49.082;9.102;2024-01-30T00:27:14;43.85;;;21.25;;
27889;SDS011;15238;49.082;9.102;2024-01-30T00:29:14;40.35;;;19.70;;
27889;SDS011;15238;49.082;9.102;2024-01-30T00:31:19;36.85;;;19.17;;
27889;SDS011;15238;49.082;9.102;2024-01-30T00:33:19;45.85;;;21.58;;
27889;SDS011;15238;49.082;9.102;2024-01-30T00:35:20;47.83;;;23.75;;
27889;SDS011;15238;49.082;9.102;2024-01-30T00:37:22;54.17;;;23.95;;
27889;SDS011;15238;49.082;9.102;2024-01-30T00:39:23;45.03;;;22.05;;
27889;SDS011;15238;49.082;9.102;2024-01-30T00:41:24;44.92;;;21.77;;
27889;SDS011;15238;49.082;9.102;2024-01-30T00:43:24;35.17;;;19.15;;
27889;SDS011;15238;49.082;9.102;2024-01-30T00:45:25;30.10;;;17.67;;
27889;SDS011;15238;49.082;9.102;2024-01-30T00:47:26;34.65;;;17.50;;
27889;SDS011;15238;49.082;9.102;2024-01-30T00:49:26;35.53;;;17.52;;
27889;SDS011;15238;49.082;9.102;2024-01-30T00:51:27;29.75;;;16.33;;
27889;SDS011;15238;49.082;9.102;2024-01-30T00:53:29;29.98;;;16.70;;
27889;SDS011;15238;49.082;9.102;2024-01-30T00:55:30;31.40;;;17.25;;
27889;SDS011;15238;49.082;9.102;2024-01-30T00:57:30;31.27;;;17.20;;
27889;SDS011;15238;49.082;9.102;2024-01-30T00:59:31;31.60;;;18.33;;
27889;SDS011;15238;49.082;9.102;2024-01-30T01:01:31;35.67;;;17.05;;
27889;SDS011;15238;49.082;9.102;2024-01-30T01:03:32;32.42;;;18.02;;
27889;SDS011;15238;49.082;9.102;2024-01-30T01:05:32;33.75;;;17.85;;
27889;SDS011;15238;49.082;9.102;2024-01-30T01:07:33;31.63;;;17.08;;
27889;SDS011;15238;49.082;9.102;2024-01-30T01:09:33;36.10;;;18.08;;
27889;SDS011;15238;49.082;9.102;2024-01-30T01:11:34;29.38;;;15.30;;
27889;SDS011;15238;49.082;9.102;2024-01-30T01:13:34;28.48;;;17.30;;
27889;SDS011;15238;49.082;9.102;2024-01-30T01:15:35;38.33;;;16.75;;
27889;SDS011;15238;49.082;9.102;2024-01-30T01:17:36;31.17;;;16.30;;
27889;SDS011;15238;49.082;9.102;2024-01-30T01:19:37;30.23;;;15.98;;
27889;SDS011;15238;49.082;9.102;2024-01-30T01:21:37;27.35;;;15.25;;
27889;SDS011;15238;49.082;9.102;2024-01-30T01:23:38;26.70;;;14.77;;
27889;SDS011;15238;49.082;9.102;2024-01-30T01:25:38;32.30;;;15.27;;
27889;SDS011;15238;49.082;9.102;2024-01-30T01:27:39;27.45;;;13.63;;
27889;SDS011;15238;49.082;9.102;2024-01-30T01:29:41;23.58;;;14.13;;
27889;SDS011;15238;49.082;9.102;2024-01-30T01:31:41;23.48;;;14.60;;
27889;SDS011;15238;49.082;9.102;2024-01-30T01:33:45;26.30;;;14.43;;
27889;SDS011;15238;49.082;9.102;2024-01-30T01:35:46;25.15;;;14.20;;
27889;SDS011;15238;49.082;9.102;2024-01-30T01:37:46;24.05;;;14.00;;
27889;SDS011;15238;49.082;9.102;2024-01-30T01:39:47;22.55;;;11.93;;
27889;SDS011;15238;49.082;9.102;2024-01-30T01:41:47;23.67;;;13.50;;
27889;SDS011;15238;49.082;9.102;2024-01-30T01:43:48;22.63;;;13.15;;
27889;SDS011;15238;49.082;9.102;2024-01-30T01:45:48;23.20;;;13.52;;
27889;SDS011;15238;49.082;9.102;2024-01-30T01:47:52;25.25;;;13.55;;
27889;SDS011;15238;49.082;9.102;2024-01-30T01:49:53;22.75;;;12.77;;
27889;SDS011;15238;49.082;9.102;2024-01-30T01:51:54;21.10;;;12.90;;
27889;SDS011;15238;49.082;9.102;2024-01-30T01:53:59;25.52;;;14.43;;
27889;SDS011;15238;49.082;9.102;2024-01-30T01:56:03;27.65;;;14.38;;
27889;SDS011;15238;49.082;9.102;2024-01-30T01:58:05;28.42;;;13.95;;
27889;SDS011;15238;49.082;9.102;2024-01-30T02:00:06;29.08;;;14.43;;
27889;SDS011;15238;49.082;9.102;2024-01-30T02:02:07;25.73;;;13.68;;
27889;SDS011;15238;49.082;9.102;2024-01-30T02:04:12;26.67;;;14.07;;
27889;SDS011;15238;49.082;9.102;2024-01-30T02:06:13;26.88;;;15.35;;
27889;SDS011;15238;49.082;9.102;2024-01-30T02:08:15;29.33;;;16.33;;
27889;SDS011;15238;49.082;9.102;2024-01-30T02:10:15;25.98;;;14.80;;
27889;SDS011;15238;49.082;9.102;2024-01-30T02:12:16;25.95;;;14.82;;
27889;SDS011;15238;49.082;9.102;2024-01-30T02:14:16;27.05;;;15.65;;
27889;SDS011;15238;49.082;9.102;2024-01-30T02:16:17;26.33;;;15.13;;
27889;SDS011;15238;49.082;9.102;2024-01-30T02:18:18;25.58;;;14.65;;
27889;SDS011;15238;49.082;9.102;2024-01-30T02:20:19;24.08;;;14.55;;
27889;SDS011;15238;49.082;9.102;2024-01-30T02:22:21;25.33;;;13.98;;
27889;SDS011;15238;49.082;9.102;2024-01-30T02:24:22;25.23;;;14.80;;
27889;SDS011;15238;49.082;9.102;2024-01-30T02:26:23;19.90;;;13.07;;
27889;SDS011;15238;49.082;9.102;2024-01-30T02:28:23;23.17;;;14.55;;
27889;SDS011;15238;49.082;9.102;2024-01-30T02:30:23;27.10;;;15.38;;
27889;SDS011;15238;49.082;9.102;2024-01-30T02:32:24;25.23;;;13.80;;
27889;SDS011;15238;49.082;9.102;2024-01-30T02:34:24;21.90;;;13.57;;
27889;SDS011;15238;49.082;9.102;2024-01-30T02:36:25;24.08;;;13.77;;
27889;SDS011;15238;49.082;9.102;2024-01-30T02:38:26;26.38;;;13.55;;
27889;SDS011;15238;49.082;9.102;2024-01-30T02:40:26;27.98;;;14.25;;
27889;SDS011;15238;49.082;9.102;2024-01-30T02:42:27;22.92;;;13.80;;
27889;SDS011;15238;49.082;9.102;2024-01-30T02:44:27;23.65;;;13.93;;
27889;SDS011;15238;49.082;9.102;2024-01-30T02:46:28;24.75;;;14.23;;
27889;SDS011;15238;49.082;9.102;2024-01-30T02:48:29;23.77;;;13.57;;
27889;SDS011;15238;49.082;9.102;2024-01-30T02:50:29;26.02;;;13.80;;
27889;SDS011;15238;49.082;9.102;2024-01-30T02:52:30;22.95;;;13.27;;
27889;SDS011;15238;49.082;9.102;2024-01-30T02:54:30;25.35;;;13.52;;
27889;SDS011;15238;49.082;9.102;2024-01-30T02:56:30;27.40;;;13.35;;
27889;SDS011;15238;49.082;9.102;2024-01-30T02:58:31;21.20;;;12.82;;
27889;SDS011;15238;49.082;9.102;2024-01-30T03:00:31;22.27;;;12.00;;
27889;SDS011;15238;49.082;9.102;2024-01-30T03:02:32;22.63;;;13.05;;
27889;SDS011;15238;49.082;9.102;2024-01-30T03:04:33;22.42;;;12.63;;
27889;SDS011;15238;49.082;9.102;2024-01-30T03:06:33;21.90;;;13.15;;
27889;SDS011;15238;49.082;9.102;2024-01-30T03:08:34;19.83;;;12.93;;
27889;SDS011;15238;49.082;9.102;2024-01-30T03:10:35;21.52;;;11.57;;
27889;SDS011;15238;49.082;9.102;2024-01-30T03:12:35;19.20;;;11.98;;
27889;SDS011;15238;49.082;9.102;2024-01-30T03:14:36;21.38;;;12.10;;
27889;SDS011;15238;49.082;9.102;2024-01-30T03:16:37;24.98;;;11.77;;
27889;SDS011;15238;49.082;9.102;2024-01-30T03:18:38;20.05;;;11.95;;
27889;SDS011;15238;49.082;9.102;2024-01-30T03:20:38;19.27;;;11.63;;
27889;SDS011;15238;49.082;9.102;2024-01-30T03:22:39;19.50;;;11.38;;
27889;SDS011;15238;49.082;9.102;2024-01-30T03:24:39;19.77;;;11.57;;
27889;SDS011;15238;49.082;9.102;2024-01-30T03:26:40;17.63;;;11.23;;
27889;SDS011;15238;49.082;9.102;2024-01-30T03:28:40;18.13;;;11.48;;
27889;SDS011;15238;49.082;9.102;2024-01-30T03:30:41;20.65;;;10.85;;
27889;SDS011;15238;49.082;9.102;2024-01-30T03:32:41;17.55;;;10.88;;
27889;SDS011;15238;49.082;9.102;2024-01-30T03:34:42;18.35;;;11.02;;
27889;SDS011;15238;49.082;9.102;2024-01-30T03:36:42;21.38;;;11.38;;
27889;SDS011;15238;49.082;9.102;2024-01-30T03:38:43;19.25;;;11.65;;
27889;SDS011;15238;49.082;9.102;2024-01-30T03:40:43;20.92;;;11.60;;
27889;SDS011;15238;49.082;9.102;2024-01-30T03:42:44;21.33;;;12.68;;
27889;SDS011;15238;49.082;9.102;2024-01-30T03:44:44;21.50;;;12.05;;
27889;SDS011;15238;49.082;9.102;2024-01-30T03:46:45;19.77;;;11.10;;
27889;SDS011;15238;49.082;9.102;2024-01-30T03:48:46;19.50;;;11.63;;
27889;SDS011;15238;49.082;9.102;2024-01-30T03:50:46;18.50;;;10.35;;
27889;SDS011;15238;49.082;9.102;2024-01-30T03:52:47;23.80;;;12.27;;
27889;SDS011;15238;49.082;9.102;2024-01-30T03:54:47;22.42;;;11.82;;
27889;SDS011;15238;49.082;9.102;2024-01-30T03:56:48;25.98;;;14.13;;
27889;SDS011;15238;49.082;9.102;2024-01-30T03:58:48;19.77;;;12.07;;
27889;SDS011;15238;49.082;9.102;2024-01-30T04:00:49;21.35;;;10.93;;
27889;SDS011;15238;49.082;9.102;2024-01-30T04:02:49;16.75;;;10.80;;
27889;SDS011;15238;49.082;9.102;2024-01-30T04:04:51;17.98;;;9.77;;
27889;SDS011;15238;49.082;9.102;2024-01-30T04:06:51;17.05;;;10.85;;
27889;SDS011;15238;49.082;9.102;2024-01-30T04:08:52;19.40;;;10.43;;
27889;SDS011;15238;49.082;9.102;2024-01-30T04:10:52;19.25;;;10.75;;
27889;SDS011;15238;49.082;9.102;2024-01-30T04:12:53;17.52;;;9.35;;
27889;SDS011;15238;49.082;9.102;2024-01-30T04:14:54;20.58;;;11.10;;
27889;SDS011;15238;49.082;9.102;2024-01-30T04:16:54;20.17;;;9.88;;
27889;SDS011;15238;49.082;9.102;2024-01-30T04:18:55;18.23;;;9.93;;
27889;SDS011;15238;49.082;9.102;2024-01-30T04:20:56;17.30;;;9.80;;
27889;SDS011;15238;49.082;9.102;2024-01-30T04:22:56;17.42;;;9.20;;
27889;SDS011;15238;49.082;9.102;2024-01-30T04:24:57;14.57;;;8.65;;
27889;SDS011;15238;49.082;9.102;2024-01-30T04:26:57;18.38;;;10.35;;
27889;SDS011;15238;49.082;9.102;2024-01-30T04:28:58;13.60;;;9.05;;
27889;SDS011;15238;49.082;9.102;2024-01-30T04:30:58;21.17;;;9.30;;
27889;SDS011;15238;49.082;9.102;2024-01-30T04:32:59;15.15;;;10.00;;
27889;SDS011;15238;49.082;9.102;2024-01-30T04:34:59;18.63;;;10.05;;
27889;SDS011;15238;49.082;9.102;2024-01-30T04:37:00;18.52;;;10.93;;
27889;SDS011;15238;49.082;9.102;2024-01-30T04:39:00;14.90;;;9.43;;
27889;SDS011;15238;49.082;9.102;2024-01-30T04:41:01;16.05;;;10.52;;
27889;SDS011;15238;49.082;9.102;2024-01-30T04:43:01;16.48;;;10.07;;
27889;SDS011;15238;49.082;9.102;2024-01-30T04:45:02;16.42;;;10.07;;
27889;SDS011;15238;49.082;9.102;2024-01-30T04:47:03;18.02;;;10.75;;
27889;SDS011;15238;49.082;9.102;2024-01-30T04:49:05;16.52;;;10.65;;
27889;SDS011;15238;49.082;9.102;2024-01-30T04:51:07;19.65;;;9.93;;
27889;SDS011;15238;49.082;9.102;2024-01-30T04:53:08;16.70;;;10.18;;
27889;SDS011;15238;49.082;9.102;2024-01-30T04:55:08;13.95;;;9.32;;
27889;SDS011;15238;49.082;9.102;2024-01-30T04:57:09;16.80;;;9.73;;
27889;SDS011;15238;49.082;9.102;2024-01-30T04:59:12;16.83;;;9.35;;
27889;SDS011;15238;49.082;9.102;2024-01-30T05:01:15;16.42;;;9.45;;
27889;SDS011;15238;49.082;9.102;2024-01-30T05:03:16;15.45;;;9.38;;
27889;SDS011;15238;49.082;9.102;2024-01-30T05:05:17;14.38;;;9.35;;
27889;SDS011;15238;49.082;9.102;2024-01-30T05:07:18;16.10;;;9.30;;
27889;SDS011;15238;49.082;9.102;2024-01-30T05:09:18;15.95;;;8.88;;
27889;SDS011;15238;49.082;9.102;2024-01-30T05:11:19;13.52;;;8.02;;
27889;SDS011;15238;49.082;9.102;2024-01-30T05:13:19;13.77;;;8.23;;
27889;SDS011;15238;49.082;9.102;2024-01-30T05:15:20;15.40;;;8.77;;
27889;SDS011;15238;49.082;9.102;2024-01-30T05:17:21;13.80;;;8.93;;
27889;SDS011;15238;49.082;9.102;2024-01-30T05:19:21;17.25;;;9.10;;
27889;SDS011;15238;49.082;9.102;2024-01-30T05:21:23;16.58;;;9.27;;
27889;SDS011;15238;49.082;9.102;2024-01-30T05:23:23;18.92;;;10.05;;
27889;SDS011;15238;49.082;9.102;2024-01-30T05:25:24;14.20;;;9.10;;
27889;SDS011;15238;49.082;9.102;2024-01-30T05:27:24;20.15;;;9.38;;
27889;SDS011;15238;49.082;9.102;2024-01-30T05:29:25;15.82;;;8.50;;
27889;SDS011;15238;49.082;9.102;2024-01-30T05:31:27;14.80;;;8.55;;
27889;SDS011;15238;49.082;9.102;2024-01-30T05:33:27;13.10;;;8.00;;
27889;SDS011;15238;49.082;9.102;2024-01-30T05:35:28;14.05;;;9.07;;
27889;SDS011;15238;49.082;9.102;2024-01-30T05:37:28;10.60;;;7.55;;
27889;SDS011;15238;49.082;9.102;2024-01-30T05:39:29;13.65;;;7.70;;
27889;SDS011;15238;49.082;9.102;2024-01-30T05:41:32;14.73;;;7.95;;
27889;SDS011;15238;49.082;9.102;2024-01-30T05:43:33;13.10;;;7.55;;
27889;SDS011;15238;49.082;9.102;2024-01-30T05:45:34;11.88;;;7.45;;
27889;SDS011;15238;49.082;9.102;2024-01-30T05:47:37;13.48;;;7.85;;
27889;SDS011;15238;49.082;9.102;2024-01-30T05:49:38;13.60;;;8.40;;
27889;SDS011;15238;49.082;9.102;2024-01-30T05:51:39;11.52;;;7.72;;
27889;SDS011;15238;49.082;9.102;2024-01-30T05:53:39;13.38;;;8.45;;
27889;SDS011;15238;49.082;9.102;2024-01-30T05:55:40;14.32;;;7.68;;
27889;SDS011;15238;49.082;9.102;2024-01-30T05:57:40;13.75;;;8.65;;
27889;SDS011;15238;49.082;9.102;2024-01-30T05:59:41;16.75;;;8.73;;
27889;SDS011;15238;49.082;9.102;2024-01-30T06:01:47;17.40;;;8.35;;
27889;SDS011;15238;49.082;9.102;2024-01-30T06:03:48;16.88;;;8.18;;
27889;SDS011;15238;49.082;9.102;2024-01-30T06:05:49;16.45;;;9.60;;
27889;SDS011;15238;49.082;9.102;2024-01-30T06:07:49;17.02;;;8.52;;
27889;SDS011;15238;49.082;9.102;2024-01-30T06:09:50;18.30;;;9.27;;
27889;SDS011;15238;49.082;9.102;2024-01-30T06:11:50;13.60;;;8.60;;
27889;SDS011;15238;49.082;9.102;2024-01-30T06:13:51;17.52;;;8.65;;
27889;SDS011;15238;49.082;9.102;2024-01-30T06:15:51;18.42;;;8.75;;
27889;SDS011;15238;49.082;9.102;2024-01-30T06:17:52;14.18;;;8.50;;
27889;SDS011;15238;49.082;9.102;2024-01-30T06:19:52;12.13;;;7.35;;
27889;SDS011;15238;49.082;9.102;2024-01-30T06:21:53;14.63;;;8.82;;
27889;SDS011;15238;49.082;9.102;2024-01-30T06:23:53;14.43;;;7.97;;
27889;SDS011;15238;49.082;9.102;2024-01-30T06:25:54;13.50;;;8.27;;
27889;SDS011;15238;49.082;9.102;2024-01-30T06:27:54;16.02;;;8.07;;
27889;SDS011;15238;49.082;9.102;2024-01-30T06:29:55;14.50;;;7.55;;
27889;SDS011;15238;49.082;9.102;2024-01-30T06:31:55;13.52;;;8.73;;
27889;SDS011;15238;49.082;9.102;2024-01-30T06:33:57;14.30;;;9.15;;
27889;SDS011;15238;49.082;9.102;2024-01-30T06:35:57;13.55;;;8.32;;
27889;SDS011;15238;49.082;9.102;2024-01-30T06:37:58;18.25;;;7.50;;
27889;SDS011;15238;49.082;9.102;2024-01-30T06:39:58;16.20;;;8.10;;
27889;SDS011;15238;49.082;9.102;2024-01-30T06:41:59;14.80;;;8.18;;
27889;SDS011;15238;49.082;9.102;2024-01-30T06:44:01;15.82;;;7.93;;
27889;SDS011;15238;49.082;9.102;2024-01-30T06:46:03;12.52;;;7.82;;
27889;SDS011;15238;49.082;9.102;2024-01-30T06:48:04;19.60;;;8.63;;
27889;SDS011;15238;49.082;9.102;2024-01-30T06:50:05;14.90;;;8.25;;
27889;SDS011;15238;49.082;9.102;2024-01-30T06:52:06;18.35;;;7.65;;
27889;SDS011;15238;49.082;9.102;2024-01-30T06:54:06;16.15;;;7.85;;
27889;SDS011;15238;49.082;9.102;2024-01-30T06:56:07;13.68;;;7.30;;
27889;SDS011;15238;49.082;9.102;2024-01-30T06:58:08;11.10;;;7.35;;
27889;SDS011;15238;49.082;9.102;2024-01-30T07:00:09;12.30;;;6.85;;
27889;SDS011;15238;49.082;9.102;2024-01-30T07:02:10;19.30;;;10.20;;
27889;SDS011;15238;49.082;9.102;2024-01-30T07:04:10;12.18;;;7.72;;
27889;SDS011;15238;49.082;9.102;2024-01-30T07:06:11;12.13;;;7.60;;
27889;SDS011;15238;49.082;9.102;2024-01-30T07:08:11;16.30;;;9.52;;
27889;SDS011;15238;49.082;9.102;2024-01-30T07:10:12;9.93;;;6.60;;
27889;SDS011;15238;49.082;9.102;2024-01-30T07:12:13;19.88;;;9.20;;
27889;SDS011;15238;49.082;9.102;2024-01-30T07:14:13;12.70;;;8.15;;
27889;SDS011;15238;49.082;9.102;2024-01-30T07:16:14;12.32;;;7.35;;
27889;SDS011;15238;49.082;9.102;2024-01-30T07:18:15;12.93;;;7.38;;
27889;SDS011;15238;49.082;9.102;2024-01-30T07:20:15;14.00;;;7.72;;
27889;SDS011;15238;49.082;9.102;2024-01-30T07:22:16;13.43;;;8.02;;
27889;SDS011;15238;49.082;9.102;2024-01-30T07:24:16;14.80;;;7.50;;
27889;SDS011;15238;49.082;9.102;2024-01-30T07:26:17;10.75;;;6.40;;
27889;SDS011;15238;49.082;9.102;2024-01-30T07:28:17;12.63;;;7.68;;
27889;SDS011;15238;49.082;9.102;2024-01-30T07:30:18;9.93;;;6.55;;
27889;SDS011;15238;49.082;9.102;2024-01-30T07:32:19;11.00;;;7.00;;
27889;SDS011;15238;49.082;9.102;2024-01-30T07:34:20;13.73;;;7.97;;
27889;SDS011;15238;49.082;9.102;2024-01-30T07:36:20;13.88;;;7.65;;
27889;SDS011;15238;49.082;9.102;2024-01-30T07:38:21;15.02;;;7.65;;
27889;SDS011;15238;49.082;9.102;2024-01-30T07:40:24;41.22;;;21.77;;
27889;SDS011;15238;49.082;9.102;2024-01-30T07:42:24;13.43;;;7.13;;
27889;SDS011;15238;49.082;9.102;2024-01-30T07:44:25;19.83;;;8.05;;
27889;SDS011;15238;49.082;9.102;2024-01-30T07:46:26;13.70;;;7.20;;
27889;SDS011;15238;49.082;9.102;2024-01-30T07:48:26;12.60;;;7.43;;
27889;SDS011;15238;49.082;9.102;2024-01-30T07:50:27;13.60;;;8.13;;
27889;SDS011;15238;49.082;9.102;2024-01-30T07:52:28;13.18;;;8.38;;
27889;SDS011;15238;49.082;9.102;2024-01-30T07:54:31;12.13;;;7.32;;
27889;SDS011;15238;49.082;9.102;2024-01-30T07:56:33;11.00;;;7.32;;
27889;SDS011;15238;49.082;9.102;2024-01-30T07:58:33;12.25;;;7.47;;
27889;SDS011;15238;49.082;9.102;2024-01-30T08:00:34;12.85;;;7.30;;
27889;SDS011;15238;49.082;9.102;2024-01-30T08:02:34;11.85;;;7.82;;
27889;SDS011;15238;49.082;9.102;2024-01-30T08:04:35;13.50;;;7.47;;
27889;SDS011;15238;49.082;9.102;2024-01-30T08:06:35;13.93;;;7.38;;
27889;SDS011;15238;49.082;9.102;2024-01-30T08:08:36;11.93;;;7.10;;
27889;SDS011;15238;49.082;9.102;2024-01-30T08:10:37;11.85;;;7.53;;
27889;SDS011;15238;49.082;9.102;2024-01-30T08:12:38;11.70;;;7.60;;
27889;SDS011;15238;49.082;9.102;2024-01-30T08:14:38;11.43;;;7.55;;
27889;SDS011;15238;49.082;9.102;2024-01-30T08:16:41;15.15;;;7.55;;
27889;SDS011;15238;49.082;9.102;2024-01-30T08:18:41;12.90;;;7.80;;
27889;SDS011;15238;49.082;9.102;2024-01-30T08:20:42;11.32;;;7.18;;
27889;SDS011;15238;49.082;9.102;2024-01-30T08:22:42;13.18;;;7.22;;
27889;SDS011;15238;49.082;9.102;2024-01-30T08:24:43;14.25;;;7.88;;
27889;SDS011;15238;49.082;9.102;2024-01-30T08:26:43;11.32;;;7.15;;
27889;SDS011;15238;49.082;9.102;2024-01-30T08:28:44;11.10;;;7.25;;
27889;SDS011;15238;49.082;9.102;2024-01-30T08:30:44;12.30;;;7.30;;
27889;SDS011;15238;49.082;9.102;2024-01-30T08:32:45;12.90;;;7.30;;
27889;SDS011;15238;49.082;9.102;2024-01-30T08:34:45;14.20;;;7.93;;
27889;SDS011;15238;49.082;9.102;2024-01-30T08:36:46;14.70;;;7.90;;
27889;SDS011;15238;49.082;9.102;2024-01-30T08:38:46;13.93;;;7.35;;
27889;SDS011;15238;49.082;9.102;2024-01-30T08:40:47;13.40;;;7.32;;
27889;SDS011;15238;49.082;9.102;2024-01-30T08:42:47;10.80;;;7.40;;
27889;SDS011;15238;49.082;9.102;2024-01-30T08:44:59;12.73;;;7.35;;
27889;SDS011;15238;49.082;9.102;2024-01-30T08:47:00;11.30;;;7.72;;
27889;SDS011;15238;49.082;9.102;2024-01-30T08:49:00;14.98;;;8.32;;
27889;SDS011;15238;49.082;9.102;2024-01-30T08:51:01;11.50;;;6.60;;
27889;SDS011;15238;49.082;9.102;2024-01-30T08:53:01;14.98;;;6.90;;
27889;SDS011;15238;49.082;9.102;2024-01-30T08:55:02;10.73;;;7.57;;
27889;SDS011;15238;49.082;9.102;2024-01-30T08:57:04;13.95;;;7.38;;
27889;SDS011;15238;49.082;9.102;2024-01-30T08:59:05;14.43;;;7.05;;
27889;SDS011;15238;49.082;9.102;2024-01-30T09:01:05;10.95;;;7.28;;
27889;SDS011;15238;49.082;9.102;2024-01-30T09:03:06;11.50;;;6.93;;
27889;SDS011;15238;49.082;9.102;2024-01-30T09:05:06;14.07;;;7.85;;
27889;SDS011;15238;49.082;9.102;2024-01-30T09:07:08;13.45;;;7.20;;
27889;SDS011;15238;49.082;9.102;2024-01-30T09:09:09;17.88;;;10.40;;
27889;SDS011;15238;49.082;9.102;2024-01-30T09:11:10;14.43;;;9.80;;
27889;SDS011;15238;49.082;9.102;2024-01-30T09:13:10;12.82;;;8.05;;
27889;SDS011;15238;49.082;9.102;2024-01-30T09:15:11;14.73;;;7.28;;
27889;SDS011;15238;49.082;9.102;2024-01-30T09:17:11;11.88;;;7.22;;
27889;SDS011;15238;49.082;9.102;2024-01-30T09:19:13;11.60;;;6.50;;
27889;SDS011;15238;49.082;9.102;2024-01-30T09:21:13;9.93;;;6.55;;
27889;SDS011;15238;49.082;9.102;2024-01-30T09:23:14;10.65;;;6.95;;
27889;SDS011;15238;49.082;9.102;2024-01-30T09:25:14;11.00;;;6.55;;
27889;SDS011;15238;49.082;9.102;2024-01-30T09:27:15;11.20;;;7.07;;
27889;SDS011;15238;49.082;9.102;2024-01-30T09:29:15;12.80;;;8.18;;
27889;SDS011;15238;49.082;9.102;2024-01-30T09:31:16;13.55;;;8.35;;
27889;SDS011;15238;49.082;9.102;2024-01-30T09:33:16;14.18;;;8.40;;
27889;SDS011;15238;49.082;9.102;2024-01-30T09:35:17;13.30;;;9.00;;
27889;SDS011;15238;49.082;9.102;2024-01-30T09:37:17;12.90;;;8.45;;
27889;SDS011;15238;49.082;9.102;2024-01-30T09:39:18;11.90;;;7.75;;
27889;SDS011;15238;49.082;9.102;2024-01-30T09:41:20;12.98;;;7.78;;
27889;SDS011;15238;49.082;9.102;2024-01-30T09:43:24;13.48;;;8.55;;
27889;SDS011;15238;49.082;9.102;2024-01-30T09:45:27;14.82;;;8.10;;
27889;SDS011;15238;49.082;9.102;2024-01-30T09:47:27;12.50;;;8.35;;
27889;SDS011;15238;49.082;9.102;2024-01-30T09:49:28;14.68;;;8.70;;
27889;SDS011;15238;49.082;9.102;2024-01-30T09:51:29;14.57;;;8.40;;
27889;SDS011;15238;49.082;9.102;2024-01-30T09:53:30;13.73;;;8.80;;
27889;SDS011;15238;49.082;9.102;2024-01-30T09:55:31;16.02;;;8.43;;
27889;SDS011;15238;49.082;9.102;2024-01-30T09:57:32;14.20;;;8.20;;
27889;SDS011;15238;49.082;9.102;2024-01-30T09:59:32;16.63;;;8.20;;
27889;SDS011;15238;49.082;9.102;2024-01-30T10:01:34;11.88;;;8.00;;
27889;SDS011;15238;49.082;9.102;2024-01-30T10:03:36;14.95;;;8.88;;
27889;SDS011;15238;49.082;9.102;2024-01-30T10:05:36;15.00;;;8.80;;
27889;SDS011;15238;49.082;9.102;2024-01-30T10:07:49;16.05;;;9.27;;
27889;SDS011;15238;49.082;9.102;2024-01-30T10:09:53;14.05;;;8.88;;
27889;SDS011;15238;49.082;9.102;2024-01-30T10:11:56;13.55;;;8.88;;
27889;SDS011;15238;49.082;9.102;2024-01-30T10:13:57;13.00;;;7.75;;
27889;SDS011;15238;49.082;9.102;2024-01-30T10:15:58;13.65;;;8.80;;
27889;SDS011;15238;49.082;9.102;2024-01-30T10:17:59;16.80;;;9.70;;
27889;SDS011;15238;49.082;9.102;2024-01-30T10:19:59;18.45;;;8.98;;
27889;SDS011;15238;49.082;9.102;2024-01-30T10:22:04;11.98;;;8.38;;
27889;SDS011;15238;49.082;9.102;2024-01-30T10:24:05;14.52;;;9.90;;
27889;SDS011;15238;49.082;9.102;2024-01-30T10:26:07;16.80;;;8.35;;
27889;SDS011;15238;49.082;9.102;2024-01-30T10:28:07;13.80;;;9.32;;
27889;SDS011;15238;49.082;9.102;2024-01-30T10:30:08;13.02;;;9.57;;
27889;SDS011;15238;49.082;9.102;2024-01-30T10:32:09;16.35;;;9.68;;
27889;SDS011;15238;49.082;9.102;2024-01-30T10:34:09;18.55;;;10.90;;
27889;SDS011;15238;49.082;9.102;2024-01-30T10:36:10;17.00;;;10.27;;
27889;SDS011;15238;49.082;9.102;2024-01-30T10:38:13;17.27;;;10.43;;
27889;SDS011;15238;49.082;9.102;2024-01-30T10:40:18;18.63;;;9.73;;
27889;SDS011;15238;49.082;9.102;2024-01-30T10:42:25;19.30;;;9.20;;
27889;SDS011;15238;49.082;9.102;2024-01-30T10:44:27;17.85;;;9.45;;
27889;SDS011;15238;49.082;9.102;2024-01-30T10:46:35;16.17;;;9.40;;
27889;SDS011;15238;49.082;9.102;2024-01-30T10:48:40;13.30;;;8.52;;
27889;SDS011;15238;49.082;9.102;2024-01-30T10:50:44;12.95;;;7.68;;
27889;SDS011;15238;49.082;9.102;2024-01-30T10:52:45;13.43;;;7.90;;
27889;SDS011;15238;49.082;9.102;2024-01-30T10:54:47;11.55;;;7.22;;
27889;SDS011;15238;49.082;9.102;2024-01-30T10:56:48;13.25;;;7.68;;
27889;SDS011;15238;49.082;9.102;2024-01-30T10:58:53;13.07;;;7.45;;
27889;SDS011;15238;49.082;9.102;2024-01-30T11:00:55;11.85;;;7.72;;
27889;SDS011;15238;49.082;9.102;2024-01-30T11:02:56;12.65;;;7.88;;
27889;SDS011;15238;49.082;9.102;2024-01-30T11:04:57;15.50;;;8.13;;
27889;SDS011;15238;49.082;9.102;2024-01-30T11:06:59;19.05;;;9.32;;
27889;SDS011;15238;49.082;9.102;2024-01-30T11:09:05;19.73;;;10.95;;
27889;SDS011;15238;49.082;9.102;2024-01-30T11:11:10;18.17;;;10.63;;
27889;SDS011;15238;49.082;9.102;2024-01-30T11:13:12;20.17;;;11.63;;
27889;SDS011;15238;49.082;9.102;2024-01-30T11:15:14;17.20;;;9.85;;
27889;SDS011;15238;49.082;9.102;2024-01-30T11:17:18;20.70;;;9.55;;
27889;SDS011;15238;49.082;9.102;2024-01-30T11:19:22;13.52;;;8.43;;
27889;SDS011;15238;49.082;9.102;2024-01-30T11:21:25;15.77;;;8.60;;
27889;SDS011;15238;49.082;9.102;2024-01-30T11:23:25;14.77;;;8.75;;
27889;SDS011;15238;49.082;9.102;2024-01-30T11:25:26;15.07;;;8.23;;
27889;SDS011;15238;49.082;9.102;2024-01-30T11:27:27;13.25;;;8.68;;
27889;SDS011;15238;49.082;9.102;2024-01-30T11:29:28;15.77;;;9.27;;
27889;SDS011;15238;49.082;9.102;2024-01-30T11:31:28;18.77;;;8.65;;
27889;SDS011;15238;49.082;9.102;2024-01-30T11:33:29;13.25;;;8.43;;
27889;SDS011;15238;49.082;9.102;2024-01-30T11:35:31;13.20;;;8.10;;
27889;SDS011;15238;49.082;9.102;2024-01-30T11:37:33;13.93;;;8.32;;
27889;SDS011;15238;49.082;9.102;2024-01-30T11:39:37;13.95;;;8.20;;
27889;SDS011;15238;49.082;9.102;2024-01-30T11:41:38;15.43;;;8.13;;
27889;SDS011;15238;49.082;9.102;2024-01-30T11:43:39;11.95;;;7.95;;
27889;SDS011;15238;49.082;9.102;2024-01-30T11:45:40;19.38;;;8.68;;
27889;SDS011;15238;49.082;9.102;2024-01-30T11:47:40;11.35;;;8.13;;
27889;SDS011;15238;49.082;9.102;2024-01-30T11:49:41;12.65;;;8.45;;
27889;SDS011;15238;49.082;9.102;2024-01-30T11:51:43;13.82;;;8.20;;
27889;SDS011;15238;49.082;9.102;2024-01-30T11:53:49;11.93;;;8.32;;